Time;durP1;ratioP1;P1;durP2;ratioP2;P2;SDS_P1;SDS_P2;PMS_P1;PMS_P2;Temp;Humidity;BMP_temperature;BMP_pressure;BME280_temperature;BME280_humidity;BME280_pressure;Samples;Min_cycle;Max_cycle;Signal;HPM_P1;HPM_P2
2023/01/30 00:02:02;;;;;;;2.35;0.77;;;;;;;4.83;25.49;102401.47;5013612;28;20056;-75
2023/01/30 00:04:32;;;;;;;1.10;0.60;;;;;;;4.80;25.11;102403.75;5009667;28;20049;-72
2023/01/30 00:07:01;;;;;;;1.70;0.60;;;;;;;4.75;25.47;102410.19;5012877;28;20090;-73
2023/01/30 00:09:29;;;;;;;0.30;0.20;;;;;;;4.69;25.70;102409.69;5013646;28;20042;-74
2023/01/30 00:11:58;;;;;;;0.82;0.30;;;;;;;4.61;24.75;102410.78;5012270;28;20064;-73
2023/01/30 00:14:27;;;;;;;0.22;0.10;;;;;;;4.54;25.50;102409.38;5011944;28;20042;-72
2023/01/30 00:16:57;;;;;;;1.58;0.30;;;;;;;4.50;25.15;102401.31;5013476;28;20046;-73
2023/01/30 00:19:25;;;;;;;0.60;0.22;;;;;;;4.44;24.76;102395.69;5015187;28;20046;-74
2023/01/30 00:21:55;;;;;;;0.73;0.40;;;;;;;4.38;26.32;102391.88;5012235;28;20506;-74
2023/01/30 00:24:24;;;;;;;0.45;0.30;;;;;;;4.24;25.55;102399.19;5012082;28;20060;-76
2023/01/30 00:26:53;;;;;;;0.98;0.30;;;;;;;4.21;24.26;102402.41;5011568;28;20279;-75
2023/01/30 00:29:21;;;;;;;0.77;0.40;;;;;;;4.19;25.30;102409.06;5012782;28;20061;-71
2023/01/30 00:31:50;;;;;;;0.98;0.52;;;;;;;4.15;26.49;102400.25;5011084;28;20058;-71
2023/01/30 00:34:18;;;;;;;0.77;0.45;;;;;;;4.11;26.85;102399.88;5010690;28;20579;-71
2023/01/30 00:36:47;;;;;;;0.35;0.35;;;;;;;4.07;25.78;102388.47;5011501;28;20600;-69
2023/01/30 00:39:17;;;;;;;2.38;0.40;;;;;;;4.02;26.65;102387.22;5011246;28;20080;-72
2023/01/30 00:47:17;;;;;;;0.98;0.45;;;;;;;3.82;25.85;102400.03;5012105;28;20056;-72
2023/01/30 00:49:45;;;;;;;1.35;0.47;;;;;;;3.72;26.08;102414.63;5013042;28;20049;-73
2023/01/30 00:52:14;;;;;;;0.52;0.40;;;;;;;3.66;26.56;102418.34;5012618;28;20065;-74
2023/01/30 00:54:44;;;;;;;0.70;0.50;;;;;;;3.53;26.36;102427.56;5009909;28;20061;-71
2023/01/30 00:57:13;;;;;;;0.68;0.55;;;;;;;3.46;26.06;102422.69;5010962;28;20053;-71
2023/01/30 00:59:41;;;;;;;0.43;0.20;;;;;;;3.38;26.40;102421.13;5004179;28;20053;-73
2023/01/30 01:02:10;;;;;;;0.40;0.40;;;;;;;3.31;27.11;102414.59;5010294;28;20053;-73
2023/01/30 01:04:42;;;;;;;1.08;0.20;;;;;;;3.25;27.78;102423.41;5012690;28;20104;-74
2023/01/30 01:07:11;;;;;;;0.80;0.30;;;;;;;3.12;27.25;102418.91;5008886;28;20042;-72
2023/01/30 01:09:39;;;;;;;0.40;0.30;;;;;;;3.03;27.72;102429.25;4995221;28;20050;-73
2023/01/30 01:12:10;;;;;;;0.38;0.20;;;;;;;2.95;27.74;102417.44;5004089;28;20053;-73
2023/01/30 01:14:39;;;;;;;0.40;0.30;;;;;;;2.89;27.59;102422.03;5008077;28;20565;-75
2023/01/30 01:17:07;;;;;;;0.77;0.47;;;;;;;2.81;26.50;102429.03;5012324;28;20053;-75
2023/01/30 01:19:36;;;;;;;0.43;0.28;;;;;;;2.76;26.47;102429.41;5009091;28;20492;-75
2023/01/30 01:22:05;;;;;;;2.95;0.40;;;;;;;2.69;27.84;102426.28;5008702;28;20053;-72
2023/01/30 01:24:33;;;;;;;1.27;0.40;;;;;;;2.63;27.77;102435.97;5007000;28;20046;-77
2023/01/30 01:27:02;;;;;;;1.05;0.50;;;;;;;2.57;27.82;102438.00;5007774;28;20563;-75
2023/01/30 01:29:32;;;;;;;1.08;0.70;;;;;;;2.51;27.89;102440.00;5010177;28;20065;-72
2023/01/30 01:32:01;;;;;;;0.30;0.30;;;;;;;2.46;28.18;102431.03;5006152;28;20050;-75
2023/01/30 01:34:29;;;;;;;1.05;0.60;;;;;;;2.32;28.50;102424.69;5014868;28;20119;-75
2023/01/30 01:36:58;;;;;;;1.73;0.40;;;;;;;2.28;26.81;102437.94;5006126;28;20052;-73
2023/01/30 01:41:00;;;;;;;0.70;0.40;;;;;;;2.23;28.91;102434.97;5011865;28;20057;-76
2023/01/30 01:42:14;;;;;;;0.52;0.30;;;;;;;2.17;28.09;102436.97;5007786;28;20496;-74
2023/01/30 01:45:05;;;;;;;0.40;0.30;;;;;;;2.11;28.34;102439.00;5007998;28;20060;-74
2023/01/30 01:47:36;;;;;;;0.65;0.35;;;;;;;2.08;27.99;102441.25;5001999;28;20072;-74
2023/01/30 01:50:15;;;;;;;0.73;0.25;;;;;;;2.03;27.77;102439.94;5005762;28;20052;-73
2023/01/30 01:52:45;;;;;;;0.70;0.45;;;;;;;2.01;28.30;102442.34;5001700;28;20048;-75
2023/01/30 01:55:15;;;;;;;1.13;0.40;;;;;;;1.99;27.98;102442.97;5006577;28;20057;-74
2023/01/30 01:57:47;;;;;;;0.60;0.30;;;;;;;1.93;28.37;102447.53;5003094;28;20053;-75
2023/01/30 02:00:22;;;;;;;0.45;0.30;;;;;;;1.89;28.26;102454.91;5005550;28;20072;-73
2023/01/30 02:02:56;;;;;;;0.75;0.43;;;;;;;1.87;28.28;102455.50;5009152;28;20050;-74
2023/01/30 02:05:29;;;;;;;0.43;0.38;;;;;;;1.84;29.25;102463.78;5007467;28;20050;-75
2023/01/30 02:08:04;;;;;;;0.20;0.20;;;;;;;1.82;28.49;102470.41;5011155;28;20393;-73
2023/01/30 02:10:40;;;;;;;0.80;0.50;;;;;;;1.79;28.81;102465.03;5015089;28;20069;-74
2023/01/30 02:13:09;;;;;;;0.82;0.38;;;;;;;1.77;28.69;102464.00;5011317;28;20527;-73
2023/01/30 02:15:39;;;;;;;0.35;0.20;;;;;;;1.74;28.71;102465.34;5010345;28;20037;-71
2023/01/30 02:18:08;;;;;;;0.35;0.22;;;;;;;1.71;29.03;102454.88;5013148;28;20056;-74
2023/01/30 02:21:04;;;;;;;0.52;0.40;;;;;;;1.69;30.09;102452.16;5011837;28;20042;-72
2023/01/30 02:23:56;;;;;;;1.42;0.50;;;;;;;1.65;29.66;102455.22;5014510;28;20046;-72
2023/01/30 02:26:53;;;;;;;0.90;0.45;;;;;;;1.54;29.10;102450.78;5014027;28;20053;-74
2023/01/30 02:30:15;;;;;;;2.72;0.50;;;;;;;1.45;30.76;102456.78;5004409;28;20389;-72
2023/01/30 02:32:55;;;;;;;1.35;0.68;;;;;;;1.48;30.39;102465.50;5011158;28;20041;-74
2023/01/30 02:35:29;;;;;;;0.22;0.20;;;;;;;1.44;28.85;102469.41;5007299;28;20053;-71
2023/01/30 02:38:13;;;;;;;1.67;0.40;;;;;;;1.32;30.02;102466.59;5009272;28;20719;-73
2023/01/30 02:40:53;;;;;;;1.73;0.47;;;;;;;1.35;30.51;102479.66;4999590;28;20129;-72
2023/01/30 02:43:40;;;;;;;0.73;0.32;;;;;;;1.34;30.35;102482.06;5005133;28;20038;-71
2023/01/30 02:46:15;;;;;;;2.47;0.52;;;;;;;1.30;32.03;102480.84;5009651;28;20695;-70
2023/01/30 02:48:50;;;;;;;0.95;0.40;;;;;;;1.29;30.90;102479.06;5008826;28;20042;-71
2023/01/30 02:51:21;;;;;;;1.42;0.60;;;;;;;1.22;30.20;102486.91;5008437;28;20665;-71
2023/01/30 02:53:51;;;;;;;0.50;0.40;;;;;;;1.20;30.73;102478.19;5007731;28;20094;-73
2023/01/30 02:56:20;;;;;;;0.73;0.30;;;;;;;1.18;30.67;102484.81;5007663;28;20057;-73
2023/01/30 02:58:54;;;;;;;0.65;0.50;;;;;;;1.18;30.58;102482.25;5008305;28;20046;-74
2023/01/30 03:01:43;;;;;;;0.47;0.45;;;;;;;1.14;31.13;102482.72;5007739;28;20502;-73
2023/01/30 03:04:30;;;;;;;0.30;0.30;;;;;;;1.13;31.63;102480.94;5008309;28;20046;-75
2023/01/30 03:07:17;;;;;;;1.17;0.70;;;;;;;1.13;31.95;102481.81;5008699;28;20140;-72
2023/01/30 03:09:57;;;;;;;1.20;0.52;;;;;;;1.15;32.10;102481.97;5000004;28;20042;-72
2023/01/30 03:12:34;;;;;;;1.25;0.70;;;;;;;1.13;34.33;102475.81;5010528;28;20412;-73
2023/01/30 03:15:11;;;;;;;3.65;0.90;;;;;;;1.13;33.04;102480.94;5001828;28;20412;-73
2023/01/30 03:17:44;;;;;;;0.70;0.45;;;;;;;1.05;33.17;102475.06;5006750;28;20050;-74
2023/01/30 03:20:16;;;;;;;1.92;0.55;;;;;;;0.96;34.01;102470.03;5008149;28;20046;-77
2023/01/30 03:22:44;;;;;;;1.58;0.85;;;;;;;0.85;33.68;102473.19;5009216;28;20050;-75
2023/01/30 03:25:18;;;;;;;1.60;0.70;;;;;;;0.83;34.46;102485.78;5010481;28;20046;-73
2023/01/30 03:27:47;;;;;;;4.53;0.70;;;;;;;0.76;35.55;102485.94;5008321;28;20054;-74
2023/01/30 03:30:24;;;;;;;0.77;0.47;;;;;;;0.77;33.80;102499.56;5010179;28;20054;-74
2023/01/30 03:32:52;;;;;;;1.52;0.80;;;;;;;0.71;32.46;102498.97;5014201;28;20411;-76
2023/01/30 03:35:23;;;;;;;1.00;0.63;;;;;;;0.60;32.71;102503.94;5013253;28;20057;-75
2023/01/30 03:37:52;;;;;;;0.70;0.57;;;;;;;0.49;32.00;102502.00;5015065;28;20052;-74
2023/01/30 03:40:21;;;;;;;1.80;0.80;;;;;;;0.46;34.35;102496.59;5009316;28;20045;-76
2023/01/30 03:42:50;;;;;;;0.85;0.65;;;;;;;0.39;34.23;102500.19;5011487;28;20068;-74
2023/01/30 03:45:18;;;;;;;2.35;0.63;;;;;;;0.44;33.09;102503.19;5013879;28;20049;-74
2023/01/30 03:47:47;;;;;;;0.52;0.40;;;;;;;0.42;33.74;102499.59;5006448;28;20463;-76
2023/01/30 03:50:16;;;;;;;1.98;0.73;;;;;;;0.36;35.16;102498.97;5015669;28;20081;-74
2023/01/30 03:52:46;;;;;;;0.95;0.70;;;;;;;0.31;34.22;102508.72;5013536;28;20041;-74
2023/01/30 03:55:15;;;;;;;3.35;1.10;;;;;;;0.33;35.51;102503.78;5015974;28;20186;-73
2023/01/30 03:57:44;;;;;;;0.80;0.65;;;;;;;0.40;34.97;102501.09;5013737;28;20038;-71
2023/01/30 04:00:13;;;;;;;1.52;0.80;;;;;;;0.46;35.92;102506.78;5012506;28;20043;-70
2023/01/30 04:02:41;;;;;;;2.13;0.70;;;;;;;0.50;35.49;102507.97;5012855;28;20056;-72
2023/01/30 04:05:10;;;;;;;1.88;0.82;;;;;;;0.52;35.55;102501.38;5012195;28;20050;-70
2023/01/30 04:07:39;;;;;;;0.47;0.38;;;;;;;0.55;36.06;102497.50;5012906;28;20056;-70
2023/01/30 04:10:10;;;;;;;2.83;0.90;;;;;;;0.55;35.14;102482.22;5011717;28;20050;-69
2023/01/30 04:12:39;;;;;;;2.08;0.77;;;;;;;0.61;35.48;102490.44;5008107;28;20050;-69
2023/01/30 04:15:08;;;;;;;1.15;0.70;;;;;;;0.65;35.72;102495.84;5014512;28;20503;-70
2023/01/30 04:17:37;;;;;;;1.92;1.00;;;;;;;0.66;35.80;102500.19;5008816;28;20046;-71
2023/01/30 04:20:06;;;;;;;2.17;0.73;;;;;;;0.68;35.72;102508.88;5013975;28;20049;-68
2023/01/30 04:22:35;;;;;;;3.92;1.10;;;;;;;0.68;35.48;102519.97;5000465;28;20045;-70
2023/01/30 04:25:04;;;;;;;1.40;0.55;;;;;;;0.69;36.50;102505.56;5013374;28;20046;-69
2023/01/30 04:27:34;;;;;;;1.25;0.30;;;;;;;0.69;36.05;102503.94;5006988;28;20503;-70
2023/01/30 04:30:03;;;;;;;1.70;0.80;;;;;;;0.69;37.05;102505.56;5004255;28;20050;-69
2023/01/30 04:32:32;;;;;;;0.70;0.57;;;;;;;0.66;37.19;102500.19;5000008;28;20046;-70
2023/01/30 04:35:00;;;;;;;1.23;1.00;;;;;;;0.67;35.73;102499.44;5001952;28;20057;-68
2023/01/30 04:37:29;;;;;;;0.52;0.45;;;;;;;0.66;36.18;102502.72;5010549;28;20496;-69
2023/01/30 04:39:57;;;;;;;0.70;0.60;;;;;;;0.65;35.74;102500.94;5001532;28;20046;-70
2023/01/30 04:42:26;;;;;;;3.17;1.10;;;;;;;0.58;37.77;102494.34;5008309;28;20491;-70
2023/01/30 04:44:56;;;;;;;1.17;0.70;;;;;;;0.56;36.83;102498.41;5011716;28;20057;-70
2023/01/30 04:47:25;;;;;;;1.30;0.90;;;;;;;0.52;36.91;102507.38;5002023;28;20041;-69
2023/01/30 04:49:53;;;;;;;2.30;1.52;;;;;;;0.50;39.84;102498.69;5013713;28;20046;-68
2023/01/30 04:52:22;;;;;;;12.88;7.15;;;;;;;0.52;44.00;102496.28;5012464;28;20085;-67
2023/01/30 04:54:51;;;;;;;15.35;8.85;;;;;;;0.54;48.07;102494.81;5013790;28;20077;-70
2023/01/30 04:57:20;;;;;;;36.35;16.95;;;;;;;0.56;49.61;102499.28;5014924;28;20067;-69
2023/01/30 04:59:48;;;;;;;26.70;11.90;;;;;;;0.49;47.65;102480.72;5006707;28;20049;-68
2023/01/30 05:02:19;;;;;;;0.75;0.60;;;;;;;0.50;48.09;102496.13;5014361;28;20492;-70
2023/01/30 05:04:50;;;;;;;0.98;0.50;;;;;;;0.49;42.46;102502.00;5003832;28;20137;-69
2023/01/30 05:07:19;;;;;;;5.72;1.10;;;;;;;0.48;38.84;102499.28;5010530;28;20081;-70
2023/01/30 05:09:47;;;;;;;1.33;0.93;;;;;;;0.46;43.68;102493.13;5010678;28;20309;-69
2023/01/30 05:12:16;;;;;;;2.83;0.80;;;;;;;0.43;39.48;102485.22;5011118;28;20045;-70
2023/01/30 05:14:45;;;;;;;2.28;1.17;;;;;;;0.44;38.71;102495.56;5012163;28;20108;-70
2023/01/30 05:17:14;;;;;;;2.63;0.60;;;;;;;0.41;38.68;102487.59;5011705;28;20085;-69
2023/01/30 05:19:44;;;;;;;0.63;0.50;;;;;;;0.39;36.51;102489.09;5008240;28;20056;-70
2023/01/30 05:22:12;;;;;;;1.13;0.70;;;;;;;0.38;35.51;102482.22;5009252;28;20069;-69
2023/01/30 05:24:41;;;;;;;1.52;0.88;;;;;;;0.37;36.35;102480.44;5010799;28;20091;-67
2023/01/30 05:27:10;;;;;;;1.38;0.63;;;;;;;0.37;36.82;102480.44;5011558;28;20046;-69
2023/01/30 05:29:38;;;;;;;2.92;0.70;;;;;;;0.35;37.54;102474.28;5010841;28;20058;-69
2023/01/30 05:32:07;;;;;;;1.55;0.90;;;;;;;0.35;36.10;102471.75;5006050;28;20107;-72
2023/01/30 05:34:36;;;;;;;1.30;0.70;;;;;;;0.34;35.59;102464.84;5012188;28;20046;-71
2023/01/30 05:37:06;;;;;;;2.38;1.42;;;;;;;0.29;36.15;102466.03;5006664;28;20050;-70
2023/01/30 05:39:34;;;;;;;0.95;0.80;;;;;;;0.32;34.77;102481.59;5012216;28;20054;-71
2023/01/30 05:42:03;;;;;;;1.30;0.63;;;;;;;0.31;34.95;102478.16;5007656;28;20404;-70
2023/01/30 05:44:32;;;;;;;1.48;0.70;;;;;;;0.29;35.81;102486.41;5008524;28;20385;-70
2023/01/30 05:47:00;;;;;;;1.15;0.70;;;;;;;0.27;34.93;102487.91;5008903;28;20114;-70
2023/01/30 05:49:29;;;;;;;1.98;0.98;;;;;;;0.25;33.33;102494.47;5009829;28;20416;-71
2023/01/30 05:51:58;;;;;;;1.98;1.40;;;;;;;0.23;35.66;102489.25;5011066;28;20050;-71
2023/01/30 05:54:28;;;;;;;1.38;0.60;;;;;;;0.22;34.10;102489.09;5009876;28;20053;-71
2023/01/30 05:56:57;;;;;;;1.88;0.47;;;;;;;0.19;33.55;102480.41;5015973;28;20049;-71
2023/01/30 05:59:25;;;;;;;2.80;0.73;;;;;;;0.19;35.12;102484.59;5011361;28;20038;-71
2023/01/30 06:01:54;;;;;;;0.65;0.45;;;;;;;0.16;34.81;102475.03;5006345;28;20522;-70
2023/01/30 06:04:22;;;;;;;2.10;0.52;;;;;;;0.14;34.65;102471.44;5011977;28;20057;-70
2023/01/30 06:06:51;;;;;;;0.70;0.30;;;;;;;0.12;34.85;102467.81;5011199;28;20058;-71
2023/01/30 06:09:19;;;;;;;2.72;1.02;;;;;;;0.09;34.27;102477.72;5010092;28;20044;-70
2023/01/30 06:11:51;;;;;;;1.60;0.70;;;;;;;0.07;34.67;102468.09;5011677;28;20069;-70
2023/01/30 06:14:19;;;;;;;2.22;0.82;;;;;;;0.01;34.70;102463.31;5008828;28;20504;-71
2023/01/30 06:16:48;;;;;;;1.13;0.50;;;;;;;0.05;35.05;102475.59;5011425;28;20056;-71
2023/01/30 06:19:16;;;;;;;1.10;0.55;;;;;;;0.02;34.74;102472.72;5007914;28;20588;-71
2023/01/30 06:21:45;;;;;;;0.80;0.77;;;;;;;0.02;35.49;102472.72;5009950;28;20499;-72
2023/01/30 06:24:13;;;;;;;0.93;0.52;;;;;;;-0.01;34.31;102473.34;5007174;28;20555;-70
2023/01/30 06:26:42;;;;;;;2.53;0.50;;;;;;;0.00;34.75;102476.81;5009342;28;20053;-71
2023/01/30 06:29:12;;;;;;;1.95;0.82;;;;;;;-0.01;34.23;102482.63;5002684;28;20050;-70
2023/01/30 06:31:41;;;;;;;0.75;0.40;;;;;;;-0.04;35.71;102477.25;5009441;28;20050;-72
2023/01/30 06:34:11;;;;;;;0.75;0.20;;;;;;;-0.06;34.10;102473.63;4998339;28;20682;-72
2023/01/30 06:36:39;;;;;;;0.98;0.70;;;;;;;-0.05;34.09;102470.31;5001485;28;20057;-71
2023/01/30 06:39:08;;;;;;;0.93;0.40;;;;;;;-0.04;33.47;102479.78;5007225;28;20125;-71
2023/01/30 06:41:36;;;;;;;1.13;0.57;;;;;;;-0.04;34.18;102482.31;5007559;28;20054;-72
2023/01/30 06:44:05;;;;;;;1.02;0.30;;;;;;;-0.06;34.53;102479.63;5007806;28;20049;-70
2023/01/30 06:46:35;;;;;;;0.82;0.55;;;;;;;-0.05;34.04;102476.31;5011118;28;20485;-71
2023/01/30 06:49:04;;;;;;;2.25;0.60;;;;;;;-0.06;34.45;102486.34;5011272;28;20562;-71
2023/01/30 06:51:32;;;;;;;1.95;0.80;;;;;;;-0.06;34.31;102484.72;5012419;28;20045;-72
2023/01/30 06:54:01;;;;;;;0.93;0.40;;;;;;;-0.05;34.37;102498.31;5011967;28;20109;-70
2023/01/30 06:56:29;;;;;;;2.22;0.40;;;;;;;-0.04;34.43;102493.41;5009987;28;20061;-70
2023/01/30 06:58:58;;;;;;;1.77;0.63;;;;;;;-0.04;34.25;102497.59;5010505;28;20471;-71
2023/01/30 07:01:26;;;;;;;1.25;0.63;;;;;;;-0.05;34.49;102488.16;5014491;28;20053;-70
2023/01/30 07:03:57;;;;;;;1.17;0.60;;;;;;;-0.05;33.80;102490.69;5009098;28;20696;-70
2023/01/30 07:06:27;;;;;;;1.88;0.50;;;;;;;-0.07;33.92;102494.72;5013978;28;20526;-71
2023/01/30 07:08:57;;;;;;;0.80;0.60;;;;;;;-0.10;34.46;102482.59;5010275;28;20057;-71
2023/01/30 07:11:26;;;;;;;0.50;0.43;;;;;;;-0.13;33.33;102483.97;5009833;28;20132;-71
2023/01/30 07:13:54;;;;;;;1.00;0.50;;;;;;;-0.13;34.12;102489.03;5008899;28;20053;-70
2023/01/30 07:16:27;;;;;;;0.73;0.40;;;;;;;-0.15;33.98;102493.06;5009779;28;20053;-70
2023/01/30 07:18:58;;;;;;;0.60;0.50;;;;;;;-0.15;33.36;102488.88;5011105;28;20121;-70
2023/01/30 07:21:27;;;;;;;2.65;0.47;;;;;;;-0.16;34.67;102486.16;5011320;28;20059;-70
2023/01/30 07:23:56;;;;;;;0.68;0.57;;;;;;;-0.19;33.57;102488.41;5006521;28;20085;-69
2023/01/30 07:26:25;;;;;;;1.15;0.40;;;;;;;-0.20;33.80;102492.63;5013480;28;20496;-70
2023/01/30 07:28:53;;;;;;;1.88;0.30;;;;;;;-0.20;34.98;102487.53;5006056;28;20053;-70
2023/01/30 07:31:22;;;;;;;0.73;0.38;;;;;;;-0.20;34.35;102486.63;5008146;28;20054;-70
2023/01/30 07:33:50;;;;;;;1.05;0.60;;;;;;;-0.24;33.66;102486.31;5015901;28;20062;-68
2023/01/30 07:36:21;;;;;;;0.60;0.45;;;;;;;-0.21;34.72;102480.63;5004267;28;20492;-70
2023/01/30 07:38:49;;;;;;;0.90;0.45;;;;;;;-0.19;33.98;102478.25;5000782;28;20053;-70
2023/01/30 07:41:18;;;;;;;0.77;0.40;;;;;;;-0.20;34.15;102487.53;5000004;28;20046;-70
2023/01/30 07:43:49;;;;;;;1.25;0.47;;;;;;;-0.20;34.32;102496.81;4999765;28;20046;-71
2023/01/30 07:46:17;;;;;;;0.90;0.57;;;;;;;-0.22;33.86;102489.00;5010435;28;20593;-70
2023/01/30 07:48:46;;;;;;;1.15;0.70;;;;;;;-0.23;33.12;102494.81;5001124;28;20425;-70
2023/01/30 07:51:15;;;;;;;3.83;0.80;;;;;;;-0.24;33.38;102488.84;5010521;28;20046;-70
2023/01/30 07:53:45;;;;;;;0.85;0.50;;;;;;;-0.26;33.11;102492.88;5014540;28;21009;-70
2023/01/30 07:56:17;;;;;;;0.32;0.32;;;;;;;-0.28;34.21;102491.81;5017476;28;20459;-70
2023/01/30 07:58:45;;;;;;;1.13;0.45;;;;;;;-0.29;33.38;102500.22;5011365;28;20056;-69
2023/01/30 08:01:14;;;;;;;1.20;0.77;;;;;;;-0.29;33.25;102515.47;5008542;28;20049;-68
2023/01/30 08:03:44;;;;;;;1.13;0.47;;;;;;;-0.29;33.67;102510.38;5010592;28;20538;-69
2023/01/30 08:06:13;;;;;;;2.50;0.43;;;;;;;-0.30;34.02;102506.06;5014342;28;20073;-69
2023/01/30 08:08:42;;;;;;;3.95;0.65;;;;;;;-0.32;34.41;102502.47;5012748;28;20531;-71
2023/01/30 08:11:12;;;;;;;0.77;0.25;;;;;;;-0.29;33.74;102506.94;5002770;28;20046;-72
2023/01/30 08:13:41;;;;;;;0.45;0.22;;;;;;;-0.29;33.56;102505.28;5013819;28;20201;-71
2023/01/30 08:16:09;;;;;;;0.73;0.32;;;;;;;-0.30;34.18;102510.22;5002509;28;20050;-71
2023/01/30 08:18:38;;;;;;;1.77;0.40;;;;;;;-0.29;33.87;102506.94;5012172;28;20428;-70
2023/01/30 08:21:13;;;;;;;2.20;0.57;;;;;;;-0.31;33.54;102504.25;5009878;28;20496;-71
2023/01/30 08:23:42;;;;;;;1.77;0.40;;;;;;;-0.30;33.42;102495.88;5011903;28;20061;-69
2023/01/30 08:26:12;;;;;;;0.57;0.30;;;;;;;-0.29;33.11;102496.78;5011366;28;20064;-70
2023/01/30 08:28:41;;;;;;;0.60;0.40;;;;;;;-0.30;34.60;102494.97;5015182;28;20109;-68
2023/01/30 08:31:12;;;;;;;1.02;0.47;;;;;;;-0.34;35.06;102486.13;5008307;28;20085;-69
2023/01/30 08:33:40;;;;;;;0.73;0.50;;;;;;;-0.35;34.05;102499.59;5009518;28;20061;-68
2023/01/30 08:36:10;;;;;;;3.05;0.60;;;;;;;-0.36;34.53;102487.63;5009639;28;20443;-70
2023/01/30 08:38:38;;;;;;;0.68;0.40;;;;;;;-0.37;33.78;102480.72;5004747;28;20054;-71
2023/01/30 08:41:08;;;;;;;0.90;0.47;;;;;;;-0.36;33.06;102482.53;5009019;28;20511;-70
2023/01/30 08:43:38;;;;;;;1.27;0.50;;;;;;;-0.37;33.35;102472.19;5011122;28;20045;-68
2023/01/30 08:46:07;;;;;;;1.38;0.47;;;;;;;-0.38;34.73;102476.41;5008981;28;20046;-70
2023/01/30 08:48:37;;;;;;;0.88;0.60;;;;;;;-0.39;34.54;102482.25;5009924;28;20120;-70
2023/01/30 08:51:06;;;;;;;2.20;0.20;;;;;;;-0.42;33.81;102475.16;5011034;28;20053;-70
2023/01/30 08:53:35;;;;;;;0.38;0.38;;;;;;;-0.41;33.68;102471.00;5012287;28;20049;-69
2023/01/30 08:56:03;;;;;;;4.32;0.73;;;;;;;-0.41;33.19;102463.38;5006827;28;20053;-69
2023/01/30 08:58:32;;;;;;;1.38;0.50;;;;;;;-0.43;34.22;102464.88;5012538;28;20057;-70
2023/01/30 09:01:06;;;;;;;1.23;0.70;;;;;;;-0.45;32.80;102458.72;5010503;28;20428;-70
2023/01/30 09:03:35;;;;;;;0.38;0.30;;;;;;;-0.47;32.55;102460.22;5008242;28;20500;-70
2023/01/30 09:06:04;;;;;;;0.90;0.40;;;;;;;-0.48;32.98;102458.38;5011614;28;20054;-70
2023/01/30 09:08:33;;;;;;;1.70;0.85;;;;;;;-0.49;32.68;102454.06;5013092;28;20053;-70
2023/01/30 09:11:02;;;;;;;0.40;0.25;;;;;;;-0.53;33.28;102449.41;5001249;28;20049;-70
2023/01/30 09:13:31;;;;;;;0.85;0.43;;;;;;;-0.55;32.31;102450.88;5011732;28;20078;-71
2023/01/30 09:16:02;;;;;;;0.88;0.52;;;;;;;-0.56;33.00;102449.09;5011664;28;20431;-70
2023/01/30 09:18:31;;;;;;;1.52;0.43;;;;;;;-0.57;33.57;102452.38;5013146;28;20045;-70
2023/01/30 09:21:04;;;;;;;0.40;0.40;;;;;;;-0.59;33.21;102438.63;5001344;28;20050;-70
2023/01/30 09:23:33;;;;;;;0.55;0.30;;;;;;;-0.63;33.07;102437.41;5011991;28;20069;-69
2023/01/30 09:26:01;;;;;;;1.92;0.60;;;;;;;-0.63;33.41;102438.31;5004567;28;20124;-70
2023/01/30 09:28:30;;;;;;;1.25;0.52;;;;;;;-0.64;33.40;102433.09;5010054;28;20575;-70
2023/01/30 09:30:59;;;;;;;0.63;0.40;;;;;;;-0.67;33.29;102430.22;5010600;28;20057;-70
2023/01/30 09:33:29;;;;;;;0.90;0.40;;;;;;;-0.69;33.68;102427.53;5008445;28;20050;-70
2023/01/30 09:35:58;;;;;;;0.82;0.63;;;;;;;-0.71;31.77;102429.03;5012561;28;20107;-70
2023/01/30 09:38:26;;;;;;;0.63;0.32;;;;;;;-0.72;32.97;102422.13;5004141;28;20393;-70
2023/01/30 09:41:13;;;;;;;2.17;0.57;;;;;;;-0.72;32.75;102427.22;5004923;28;20488;-69
2023/01/30 09:43:59;;;;;;;0.63;0.40;;;;;;;-0.81;32.78;102413.56;5001703;28;20053;-70
2023/01/30 09:46:35;;;;;;;0.32;0.30;;;;;;;-0.74;33.31;102425.25;5011789;28;20409;-70
2023/01/30 09:49:18;;;;;;;0.30;0.20;;;;;;;-0.86;33.35;102415.66;5008775;28;20064;-69
2023/01/30 09:52:06;;;;;;;2.38;0.57;;;;;;;-0.81;34.29;102436.44;5010407;28;20559;-70
2023/01/30 09:54:38;;;;;;;0.73;0.30;;;;;;;-0.81;34.11;102436.44;5002836;28;20485;-70
2023/01/30 09:57:17;;;;;;;1.95;0.47;;;;;;;-0.89;34.62;102443.28;5010054;28;20500;-70
2023/01/30 09:59:58;;;;;;;0.60;0.35;;;;;;;-0.83;35.22;102458.25;5008589;28;20046;-69
2023/01/30 10:02:37;;;;;;;5.07;0.68;;;;;;;-0.85;36.38;102450.50;5010097;28;20053;-69
2023/01/30 10:05:08;;;;;;;1.73;0.73;;;;;;;-0.85;36.86;102464.81;5011944;28;20161;-70
2023/01/30 10:07:57;;;;;;;0.35;0.32;;;;;;;-0.86;37.16;102452.88;5010206;28;20046;-70
2023/01/30 10:10:42;;;;;;;0.82;0.50;;;;;;;-0.85;36.66;102454.66;5007963;28;20137;-70
2023/01/30 10:13:26;;;;;;;0.68;0.38;;;;;;;-0.88;37.21;102465.41;5003296;28;20503;-70
2023/01/30 10:16:02;;;;;;;0.20;0.20;;;;;;;-0.88;36.14;102467.06;5006359;28;20050;-69
2023/01/30 10:18:57;;;;;;;1.08;0.30;;;;;;;-0.88;36.47;102464.50;5010078;28;20054;-69
2023/01/30 10:21:39;;;;;;;1.83;0.40;;;;;;;-0.92;37.08;102473.44;5004523;28;20096;-70
2023/01/30 10:24:21;;;;;;;1.60;0.50;;;;;;;-0.90;37.41;102481.25;5005819;28;20042;-70
2023/01/30 10:26:50;;;;;;;0.53;0.33;;;;;;;-0.91;37.92;102489.63;5011419;28;20045;-69
2023/01/30 10:29:23;;;;;;;0.50;0.25;;;;;;;-0.92;38.96;102485.25;5011653;28;20295;-69
2023/01/30 10:31:56;;;;;;;0.90;0.43;;;;;;;-0.95;39.01;102477.34;4961414;28;20268;-70
2023/01/30 10:34:26;;;;;;;;;;;;;;;-1.01;38.98;102461.44;4972992;28;20397;-70
2023/01/30 10:37:01;;;;;;;0.80;0.40;;;;;;;-0.99;38.20;102472.69;4958797;28;20288;-69
2023/01/30 10:39:38;;;;;;;1.75;0.60;;;;;;;-0.98;37.84;102477.03;4965612;28;20059;-70
2023/01/30 10:42:11;;;;;;;2.08;0.60;;;;;;;-1.08;37.76;102453.22;4971575;28;20051;-69
2023/01/30 10:44:41;;;;;;;0.50;0.30;;;;;;;-1.01;37.84;102469.06;4970444;28;20047;-69
2023/01/30 10:47:45;;;;;;;1.08;0.50;;;;;;;-1.01;38.08;102474.16;4972371;28;20058;-70
2023/01/30 10:50:18;;;;;;;1.67;0.70;;;;;;;-1.03;38.39;102471.47;4968594;28;20046;-69
2023/01/30 10:52:53;;;;;;;;;;;;;;;-1.03;39.25;102473.09;4967432;28;20054;-70
2023/01/30 10:55:32;;;;;;;2.45;0.98;;;;;;;-1.08;39.06;102468.47;4967677;28;19929;-70
2023/01/30 10:58:17;;;;;;;2.47;0.55;;;;;;;-1.09;38.97;102473.38;4964371;28;20059;-70
2023/01/30 11:00:51;;;;;;;0.52;0.50;;;;;;;-1.12;39.29;102461.25;4960050;28;20053;-69
2023/01/30 11:03:29;;;;;;;3.35;0.35;;;;;;;-1.16;40.19;102469.28;4967821;28;21397;-70
2023/01/30 11:06:00;;;;;;;0.70;0.50;;;;;;;-1.19;40.33;102475.69;4972301;28;20055;-70
2023/01/30 11:08:33;;;;;;;1.73;0.40;;;;;;;-1.22;40.56;102472.84;4965705;28;20047;-70
2023/01/30 11:11:02;;;;;;;2.17;0.47;;;;;;;-1.28;40.80;102470.56;4973319;28;20336;-69
2023/01/30 11:13:33;;;;;;;0.57;0.20;;;;;;;-1.30;40.54;102474.59;4969639;28;20411;-69
2023/01/30 11:16:07;;;;;;;0.88;0.40;;;;;;;-1.30;40.56;102472.03;4970899;28;20490;-70
2023/01/30 11:18:46;;;;;;;0.57;0.43;;;;;;;-1.31;40.84;102457.53;4969043;28;20078;-70
2023/01/30 11:21:23;;;;;;;1.45;0.40;;;;;;;-1.33;40.87;102446.31;4968841;28;20581;-70
2023/01/30 11:23:55;;;;;;;0.73;0.40;;;;;;;-1.34;40.56;102452.16;4971520;28;20390;-70
2023/01/30 11:26:30;;;;;;;0.40;0.38;;;;;;;-1.37;40.71;102449.28;4963019;28;20062;-69
2023/01/30 11:29:00;;;;;;;1.15;0.40;;;;;;;-1.35;41.78;102457.94;4969821;28;20142;-70
2023/01/30 11:31:30;;;;;;;1.40;0.30;;;;;;;-1.36;41.34;102448.53;4999898;28;20046;-70
2023/01/30 11:34:04;;;;;;;2.97;1.45;;;;;;;-1.38;40.55;102438.22;4996036;28;20452;-70
2023/01/30 11:36:35;;;;;;;0.60;0.47;;;;;;;-1.38;40.77;102439.84;4996221;28;20050;-70
2023/01/30 11:39:22;;;;;;;0.50;0.47;;;;;;;-1.38;41.22;102439.84;5006804;28;20116;-71
2023/01/30 11:42:00;;;;;;;3.00;0.68;;;;;;;-1.37;39.96;102441.69;4993684;28;20055;-70
2023/01/30 11:44:30;;;;;;;0.77;0.40;;;;;;;-1.38;39.46;102444.94;4998596;28;20168;-70
2023/01/30 11:47:02;;;;;;;0.52;0.17;;;;;;;-1.39;39.54;102441.50;5009228;28;20057;-70
2023/01/30 11:49:36;;;;;;;2.70;0.38;;;;;;;-1.40;38.45;102433.72;5001369;28;20065;-73
2023/01/30 11:52:06;;;;;;;0.22;0.22;;;;;;;-1.39;38.93;102451.66;5011385;28;20133;-70
2023/01/30 11:54:40;;;;;;;0.30;0.17;;;;;;;-1.39;38.50;102435.53;5012869;28;20061;-70
2023/01/30 11:57:13;;;;;;;0.40;0.30;;;;;;;-1.39;39.29;102438.97;5012911;28;20046;-71